createdAt,value
2022-08-02T00:01:20.073Z,92.86
2022-08-02T00:03:49.852Z,92.80
2022-08-02T00:06:22.865Z,92.84
2022-08-02T00:08:53.991Z,92.88
2022-08-02T00:11:23.782Z,92.86
2022-08-02T00:13:53.539Z,92.99
2022-08-02T00:16:23.978Z,92.94
2022-08-02T00:19:07.656Z,92.90
2022-08-02T00:21:39.966Z,92.91
2022-08-02T00:24:29.881Z,92.89
2022-08-02T00:26:59.616Z,92.74
2022-08-02T00:29:29.342Z,92.88
2022-08-02T00:31:59.078Z,92.97
2022-08-02T00:34:32.054Z,93.09
2022-08-02T00:37:07.415Z,92.83
2022-08-02T00:39:37.295Z,92.93
2022-08-02T00:42:07.475Z,93.15
2022-08-02T00:44:37.540Z,93.10
2022-08-02T00:47:07.850Z,93.29
2022-08-02T00:49:37.727Z,93.55
2022-08-02T00:52:10.761Z,93.44
2022-08-02T00:54:40.733Z,93.65
2022-08-02T00:57:10.465Z,93.72
2022-08-02T00:59:42.030Z,93.78
2022-08-02T01:02:12.372Z,94.06
2022-08-02T01:04:42.280Z,94.23
2022-08-02T01:07:14.718Z,94.26
2022-08-02T01:09:45.156Z,94.24
2022-08-02T01:12:16.359Z,94.32
2022-08-02T01:14:49.015Z,94.46
2022-08-02T01:17:23.570Z,94.54
2022-08-02T01:20:00.456Z,94.79
2022-08-02T01:23:05.055Z,94.81
2022-08-02T01:25:53.307Z,94.87
2022-08-02T01:28:37.806Z,94.97
2022-08-02T01:31:15.477Z,95.11
2022-08-02T01:33:50.443Z,95.30
2022-08-02T01:36:23.440Z,95.50
2022-08-02T01:38:57.354Z,96.08
2022-08-02T01:41:29.808Z,95.87
2022-08-02T01:44:04.173Z,96.05
2022-08-02T01:46:35.837Z,95.95
2022-08-02T01:49:09.473Z,96.05
2022-08-02T01:51:53.063Z,95.99
2022-08-02T01:54:27.854Z,96.07
2022-08-02T01:56:59.419Z,96.12
2022-08-02T01:59:34.425Z,95.99
2022-08-02T02:02:04.878Z,95.69
2022-08-02T02:04:35.910Z,95.94
2022-08-02T02:07:06.599Z,95.97
2022-08-02T02:09:50.184Z,95.74
2022-08-02T02:12:22.338Z,95.80
2022-08-02T02:14:56.856Z,95.67
2022-08-02T02:17:50.528Z,95.96
2022-08-02T02:20:21.346Z,95.98
2022-08-02T02:22:51.752Z,95.74
2022-08-02T02:25:27.516Z,95.75
2022-08-02T02:28:09.841Z,95.58
2022-08-02T02:30:44.573Z,94.99
2022-08-02T02:33:16.726Z,95.32
2022-08-02T02:35:49.675Z,95.56
2022-08-02T02:38:21.851Z,95.49
2022-08-02T02:40:52.020Z,95.40
2022-08-02T02:43:23.723Z,95.61
2022-08-02T02:45:56.727Z,95.47
2022-08-02T02:48:27.892Z,95.36
2022-08-02T02:50:58.454Z,95.56
2022-08-02T02:53:28.887Z,95.54
2022-08-02T02:56:19.739Z,95.65
2022-08-02T02:58:51.251Z,95.55
2022-08-02T03:01:55.636Z,95.32
2022-08-02T03:04:23.307Z,95.26
2022-08-02T03:06:53.182Z,95.28
2022-08-02T03:09:23.022Z,95.35
2022-08-02T03:11:53.820Z,95.54
2022-08-02T03:14:24.645Z,95.58
2022-08-02T03:16:58.045Z,95.62
2022-08-02T03:19:33.122Z,95.83
2022-08-02T03:22:03.529Z,95.98
2022-08-02T03:24:33.312Z,95.91
2022-08-02T03:27:03.064Z,95.90
2022-08-02T03:29:34.758Z,95.91
2022-08-02T03:32:08.216Z,95.99
2022-08-02T03:34:38.368Z,96.04
2022-08-02T03:37:08.203Z,96.34
2022-08-02T03:39:38.328Z,96.29
2022-08-02T03:42:22.916Z,96.08
2022-08-02T03:44:53.400Z,95.99
2022-08-02T03:47:26.921Z,95.83
2022-08-02T03:49:57.369Z,95.75
2022-08-02T03:52:29.428Z,95.76
2022-08-02T03:54:59.163Z,95.76
2022-08-02T03:57:29.316Z,96.00
2022-08-02T03:59:59.051Z,95.91
2022-08-02T04:02:31.347Z,96.03
2022-08-02T04:05:01.091Z,96.19
2022-08-02T04:08:33.230Z,96.51
2022-08-02T04:10:21.009Z,96.49
2022-08-02T04:12:50.993Z,96.55
2022-08-02T04:15:21.592Z,96.64
2022-08-02T04:17:57.441Z,96.73
2022-08-02T04:20:32.626Z,96.69
2022-08-02T04:23:05.044Z,96.76
2022-08-02T04:25:40.030Z,96.57
2022-08-02T04:28:16.692Z,96.54
2022-08-02T04:30:48.052Z,96.64
2022-08-02T04:33:21.305Z,96.21
2022-08-02T04:35:51.044Z,96.58
2022-08-02T04:38:20.975Z,96.71
2022-08-02T04:40:55.425Z,96.84
2022-08-02T04:43:25.749Z,96.75
2022-08-02T04:45:57.171Z,96.84
2022-08-02T04:48:29.498Z,97.00
2022-08-02T04:50:59.552Z,97.33
2022-08-02T04:53:29.455Z,97.56
2022-08-02T04:55:59.181Z,96.39
2022-08-02T04:58:44.305Z,96.09
2022-08-02T05:01:14.100Z,95.54
2022-08-02T05:03:46.854Z,94.09
2022-08-02T05:06:19.904Z,92.05
2022-08-02T05:08:52.633Z,91.41
2022-08-02T05:11:30.071Z,89.76
2022-08-02T05:14:06.887Z,89.65
2022-08-02T05:16:36.650Z,89.59
2022-08-02T05:19:08.968Z,89.78
2022-08-02T05:21:38.701Z,89.50
2022-08-02T05:24:09.683Z,89.78
2022-08-02T05:26:39.400Z,89.28
2022-08-02T05:29:09.116Z,89.68
2022-08-02T05:31:38.847Z,89.30
2022-08-02T05:34:12.194Z,89.54
2022-08-02T05:36:42.152Z,89.25
2022-08-02T05:39:13.711Z,89.83
2022-08-02T05:41:48.996Z,89.54
2022-08-02T05:44:18.797Z,88.29
2022-08-02T05:46:48.529Z,88.52
2022-08-02T05:49:20.914Z,87.97
2022-08-02T05:52:00.557Z,87.30
2022-08-02T05:54:44.194Z,86.96
2022-08-02T05:57:29.253Z,86.52
2022-08-02T06:00:08.648Z,85.64
2022-08-02T06:02:50.721Z,84.54
2022-08-02T06:05:23.794Z,83.85
2022-08-02T06:07:58.656Z,82.62
2022-08-02T06:10:30.627Z,81.38
2022-08-02T06:13:14.524Z,80.28
2022-08-02T06:15:52.963Z,80.67
2022-08-02T06:18:28.450Z,79.97
2022-08-02T06:22:32.182Z,78.89
2022-08-02T06:23:57.714Z,77.74
2022-08-02T06:26:29.847Z,77.68
2022-08-02T06:29:01.312Z,77.24
2022-08-02T06:31:31.558Z,76.77
2022-08-02T06:34:01.288Z,77.06
2022-08-02T06:36:40.436Z,76.67
2022-08-02T06:39:17.892Z,76.32
2022-08-02T06:41:50.449Z,76.52
2022-08-02T06:44:46.017Z,76.05
2022-08-02T06:47:13.113Z,75.03
2022-08-02T06:49:52.362Z,75.57
2022-08-02T06:52:30.177Z,75.78
2022-08-02T06:55:01.602Z,76.19
2022-08-02T06:57:32.215Z,76.17
2022-08-02T07:00:05.053Z,75.95
2022-08-02T07:02:34.867Z,75.61
2022-08-02T07:05:04.953Z,75.08
2022-08-02T07:07:37.577Z,74.36
2022-08-02T07:10:08.190Z,73.69
2022-08-02T07:12:38.177Z,73.39
2022-08-02T07:15:10.353Z,73.05
2022-08-02T07:17:40.038Z,72.28
2022-08-02T07:20:13.503Z,71.35
2022-08-02T07:22:45.850Z,70.63
2022-08-02T07:25:15.584Z,70.92
2022-08-02T07:27:45.487Z,68.80
2022-08-02T07:30:15.721Z,69.14
2022-08-02T07:32:45.440Z,67.64
2022-08-02T07:35:19.113Z,67.80
2022-08-02T07:37:54.961Z,68.64
2022-08-02T07:40:29.093Z,68.65
2022-08-02T07:43:03.819Z,67.99
2022-08-02T07:45:35.779Z,66.71
2022-08-02T07:48:06.330Z,66.66
2022-08-02T07:50:36.180Z,64.04
2022-08-02T07:53:08.492Z,64.41
2022-08-02T07:55:39.816Z,64.17
2022-08-02T07:58:12.456Z,63.16
2022-08-02T08:00:42.805Z,63.45
2022-08-02T08:03:12.647Z,63.92
2022-08-02T08:05:42.468Z,62.80
2022-08-02T08:08:17.538Z,61.12
2022-08-02T08:10:47.825Z,59.44
2022-08-02T08:13:17.588Z,60.87
2022-08-02T08:15:51.877Z,60.79
2022-08-02T08:18:22.536Z,60.72
2022-08-02T08:20:52.513Z,60.46
2022-08-02T08:23:24.858Z,60.83
2022-08-02T08:25:54.576Z,60.77
2022-08-02T08:28:24.447Z,59.26
2022-08-02T08:30:54.219Z,58.73
2022-08-02T08:33:23.930Z,58.76
2022-08-02T08:35:55.899Z,58.42
2022-08-02T08:38:28.521Z,58.77
2022-08-02T08:40:58.388Z,58.15
2022-08-02T08:43:28.158Z,58.68
2022-08-02T08:45:58.132Z,58.97
2022-08-02T08:48:31.283Z,58.48
2022-08-02T08:51:13.325Z,57.82
2022-08-02T08:53:46.872Z,57.96
2022-08-02T08:56:18.532Z,58.45
2022-08-02T08:58:49.872Z,57.82
2022-08-02T09:01:19.700Z,58.03
2022-08-02T09:03:49.512Z,57.80
2022-08-02T09:06:19.223Z,57.69
2022-08-02T09:08:51.592Z,58.01
2022-08-02T09:11:22.653Z,57.92
2022-08-02T09:13:54.590Z,57.91
2022-08-02T09:16:32.084Z,57.45
2022-08-02T09:19:02.681Z,56.98
2022-08-02T09:21:39.158Z,57.95
2022-08-02T09:24:22.005Z,58.59
2022-08-02T09:26:53.744Z,59.25
2022-08-02T09:29:26.361Z,59.14
2022-08-02T09:32:05.415Z,58.40
2022-08-02T09:34:47.514Z,58.75
2022-08-02T09:37:31.160Z,59.82
2022-08-02T09:40:03.689Z,60.92
2022-08-02T09:42:33.634Z,60.86
2022-08-02T09:45:04.859Z,60.37
2022-08-02T09:47:37.315Z,61.20
2022-08-02T09:50:11.011Z,61.19
2022-08-02T09:52:46.113Z,62.20
2022-08-02T09:55:18.615Z,62.12
2022-08-02T09:57:51.165Z,61.83
2022-08-02T10:00:43.559Z,60.73
2022-08-02T10:03:21.885Z,61.81
2022-08-02T10:05:57.285Z,62.50
2022-08-02T10:08:33.771Z,63.16
2022-08-02T10:11:06.675Z,64.38
2022-08-02T10:13:37.561Z,63.58
2022-08-02T10:16:08.724Z,64.08
2022-08-02T10:18:40.497Z,64.11
2022-08-02T10:21:15.444Z,63.82
2022-08-02T10:23:47.934Z,63.53
2022-08-02T10:26:23.579Z,63.84
2022-08-02T10:28:53.375Z,64.66
2022-08-02T10:31:26.948Z,65.21
2022-08-02T10:33:58.749Z,65.24
2022-08-02T10:36:30.332Z,64.48
2022-08-02T10:39:01.468Z,64.66
2022-08-02T10:41:48.675Z,65.41
2022-08-02T10:44:29.480Z,65.02
2022-08-02T10:47:24.770Z,66.90
2022-08-02T10:49:56.455Z,66.46
2022-08-02T10:52:27.053Z,66.68
2022-08-02T10:55:01.094Z,67.28
2022-08-02T10:57:36.526Z,67.07
2022-08-02T11:00:17.418Z,66.22
2022-08-02T11:02:52.929Z,66.11
2022-08-02T11:05:42.752Z,66.43
2022-08-02T11:08:22.220Z,67.56
2022-08-02T11:10:51.975Z,67.11
2022-08-02T11:13:26.560Z,67.13
2022-08-02T11:16:01.438Z,66.92
2022-08-02T11:19:01.169Z,67.77
2022-08-02T11:21:32.460Z,68.00
2022-08-02T11:24:30.561Z,67.59
2022-08-02T11:27:02.176Z,67.57
2022-08-02T11:29:39.424Z,67.67
2022-08-02T11:32:10.941Z,68.80
2022-08-02T11:34:42.810Z,68.92
2022-08-02T11:37:12.912Z,69.05
2022-08-02T11:39:42.774Z,68.84
2022-08-02T11:42:13.111Z,69.49
2022-08-02T11:44:46.755Z,69.26
2022-08-02T11:47:16.563Z,69.51
2022-08-02T11:49:47.206Z,70.38
2022-08-02T11:52:16.940Z,70.87
2022-08-02T11:54:47.209Z,71.20
2022-08-02T11:57:20.830Z,70.52
2022-08-02T11:59:55.119Z,71.76
2022-08-02T12:02:26.571Z,71.96
2022-08-02T12:05:02.056Z,72.49
2022-08-02T12:07:36.151Z,72.70
2022-08-02T12:10:08.858Z,73.34
2022-08-02T12:12:50.741Z,74.91
2022-08-02T12:15:36.819Z,74.35
2022-08-02T12:18:24.037Z,74.41
2022-08-02T12:20:53.776Z,75.17
2022-08-02T12:23:23.609Z,75.20
2022-08-02T12:26:03.886Z,75.88
2022-08-02T12:28:39.210Z,76.18
2022-08-02T12:31:14.293Z,76.23
2022-08-02T12:33:52.411Z,76.91
2022-08-02T12:36:24.132Z,76.48
2022-08-02T12:38:54.774Z,75.98
2022-08-02T12:41:30.862Z,76.34
2022-08-02T12:44:02.911Z,75.74
2022-08-02T12:46:35.689Z,75.65
2022-08-02T12:49:19.899Z,76.18
2022-08-02T12:51:56.941Z,77.00
2022-08-02T12:54:32.751Z,76.13
2022-08-02T12:57:14.067Z,76.20
2022-08-02T12:59:45.767Z,76.63
2022-08-02T13:02:18.944Z,76.29
2022-08-02T13:04:50.108Z,76.69
2022-08-02T13:07:20.707Z,77.27
2022-08-02T13:09:50.481Z,77.46
2022-08-02T13:12:20.244Z,77.13
2022-08-02T13:14:49.973Z,76.96
2022-08-02T13:17:22.276Z,77.73
2022-08-02T13:19:52.562Z,77.71
2022-08-02T13:22:23.006Z,76.73
2022-08-02T13:24:56.022Z,77.24
2022-08-02T13:27:28.526Z,77.40
2022-08-02T13:29:59.810Z,77.44
2022-08-02T13:32:32.117Z,77.60
2022-08-02T13:35:02.493Z,77.42
2022-08-02T13:37:34.810Z,77.29
2022-08-02T13:40:21.670Z,77.63
2022-08-02T13:42:52.383Z,77.15
2022-08-02T13:45:22.207Z,77.16
2022-08-02T13:48:04.149Z,76.83
2022-08-02T13:50:35.761Z,77.21
2022-08-02T13:53:05.552Z,76.80
2022-08-02T13:55:35.358Z,77.16
2022-08-02T13:58:05.817Z,77.46
2022-08-02T14:00:36.343Z,78.65
2022-08-02T14:03:12.128Z,79.75
2022-08-02T14:05:48.166Z,80.44
2022-08-02T14:08:19.844Z,80.64
2022-08-02T14:10:50.238Z,80.84
2022-08-02T14:13:20.577Z,80.39
2022-08-02T14:15:50.577Z,80.38
2022-08-02T14:18:22.905Z,80.01
2022-08-02T14:20:52.601Z,79.93
2022-08-02T14:23:49.956Z,79.63
2022-08-02T14:26:27.242Z,79.64
2022-08-02T14:28:57.768Z,79.48
2022-08-02T14:31:27.532Z,78.06
2022-08-02T14:33:59.877Z,78.21
2022-08-02T14:36:29.826Z,77.58
2022-08-02T14:38:59.673Z,76.57
2022-08-02T14:41:29.489Z,75.72
2022-08-02T14:44:08.314Z,75.60
2022-08-02T14:46:40.576Z,75.36
2022-08-02T14:49:24.296Z,75.21
2022-08-02T14:51:54.822Z,74.96
2022-08-02T14:54:28.176Z,74.37
2022-08-02T14:57:01.453Z,74.17
2022-08-02T14:59:31.936Z,74.26
2022-08-02T15:02:02.055Z,73.87
2022-08-02T15:04:42.954Z,74.06
2022-08-02T15:07:13.277Z,74.12
2022-08-02T15:09:43.131Z,73.74
2022-08-02T15:12:14.663Z,73.90
2022-08-02T15:14:44.744Z,73.58
2022-08-02T15:17:14.625Z,73.38
2022-08-02T15:19:57.695Z,72.51
2022-08-02T15:22:31.162Z,72.41
2022-08-02T15:25:01.994Z,73.18
2022-08-02T15:27:33.944Z,72.71
2022-08-02T15:30:09.097Z,72.60
2022-08-02T15:32:38.945Z,72.42
2022-08-02T15:35:11.503Z,71.57
2022-08-02T15:37:41.680Z,71.99
2022-08-02T15:40:13.054Z,71.87
2022-08-02T15:42:43.680Z,72.07
2022-08-02T15:45:15.641Z,71.65
2022-08-02T15:47:48.284Z,71.85
2022-08-02T15:50:23.246Z,72.23
2022-08-02T15:52:52.962Z,72.07
2022-08-02T15:55:22.816Z,71.87
2022-08-02T15:57:52.562Z,72.27
2022-08-02T16:00:22.517Z,72.18
2022-08-02T16:02:52.265Z,72.40
2022-08-02T16:05:24.762Z,72.45
2022-08-02T16:07:54.675Z,72.00
2022-08-02T16:10:24.442Z,72.04
2022-08-02T16:13:14.146Z,72.37
2022-08-02T16:15:43.898Z,72.63
2022-08-02T16:18:13.689Z,73.27
2022-08-02T16:20:46.029Z,73.22
2022-08-02T16:23:15.780Z,73.62
2022-08-02T16:25:45.558Z,73.98
2022-08-02T16:28:15.358Z,74.34
2022-08-02T16:30:59.256Z,74.99
2022-08-02T16:33:34.757Z,75.19
2022-08-02T16:36:07.530Z,75.82
2022-08-02T16:38:37.258Z,75.51
2022-08-02T16:41:07.272Z,75.49
2022-08-02T16:43:37.438Z,75.64
2022-08-02T16:46:09.996Z,75.50
2022-08-02T16:48:40.014Z,75.45
2022-08-02T16:51:14.029Z,75.90
2022-08-02T16:53:59.798Z,76.19
2022-08-02T16:56:30.875Z,76.66
2022-08-02T16:59:00.727Z,77.11
2022-08-02T17:02:11.399Z,76.76
2022-08-02T17:04:22.065Z,76.57
2022-08-02T17:06:54.392Z,77.04
2022-08-02T17:10:02.077Z,77.46
2022-08-02T17:12:18.269Z,77.77
2022-08-02T17:14:55.516Z,77.71
2022-08-02T17:17:34.290Z,78.38
2022-08-02T17:20:04.439Z,78.74
2022-08-02T17:22:37.119Z,79.15
2022-08-02T17:25:11.207Z,79.86
2022-08-02T17:27:40.994Z,80.57
2022-08-02T17:30:12.063Z,81.13
2022-08-02T17:32:45.665Z,81.44
2022-08-02T17:35:16.570Z,81.63
2022-08-02T17:37:54.558Z,82.40
2022-08-02T17:40:29.778Z,82.38
2022-08-02T17:42:59.480Z,82.50
2022-08-02T17:46:02.169Z,82.97
2022-08-02T17:48:19.393Z,83.25
2022-08-02T17:50:59.446Z,83.17
2022-08-02T17:53:36.261Z,83.23
2022-08-02T17:56:06.425Z,82.84
2022-08-02T17:58:36.124Z,82.72
2022-08-02T18:01:24.062Z,82.44
2022-08-02T18:03:54.754Z,82.72
2022-08-02T18:06:26.144Z,83.19
2022-08-02T18:08:59.201Z,83.42
2022-08-02T18:11:52.107Z,83.54
2022-08-02T18:14:19.949Z,83.97
2022-08-02T18:16:51.397Z,84.06
2022-08-02T18:19:22.404Z,84.16
2022-08-02T18:21:52.482Z,84.33
2022-08-02T18:24:25.239Z,84.93
2022-08-02T18:26:58.831Z,85.18
2022-08-02T18:29:30.223Z,85.34
2022-08-02T18:32:11.668Z,85.61
2022-08-02T18:34:44.394Z,85.72
2022-08-02T18:37:17.783Z,85.90
2022-08-02T18:39:51.464Z,86.17
2022-08-02T18:42:21.665Z,86.22
2022-08-02T18:44:51.385Z,86.35
2022-08-02T18:47:22.821Z,86.48
2022-08-02T18:49:56.076Z,86.64
2022-08-02T18:52:30.907Z,86.62
2022-08-02T18:55:07.439Z,86.92
2022-08-02T18:58:17.887Z,86.74
2022-08-02T19:00:36.855Z,86.86
2022-08-02T19:03:07.874Z,87.12
2022-08-02T19:05:53.784Z,87.31
2022-08-02T19:08:25.572Z,87.53
2022-08-02T19:13:48.516Z,87.87
2022-08-02T19:16:19.432Z,87.90
2022-08-02T19:18:49.148Z,88.05
2022-08-02T19:21:19.326Z,88.44
2022-08-02T19:24:09.865Z,88.76
2022-08-02T19:26:42.507Z,89.12
2022-08-02T19:29:41.970Z,89.36
2022-08-02T19:32:41.303Z,89.68
2022-08-02T19:35:02.197Z,89.81
2022-08-02T19:37:38.664Z,89.91
2022-08-02T19:40:09.939Z,90.12
2022-08-02T19:42:42.314Z,90.30
2022-08-02T19:45:48.945Z,90.54
2022-08-02T19:48:23.581Z,90.77
2022-08-02T19:51:00.855Z,90.89
2022-08-02T19:53:47.253Z,91.05
2022-08-02T19:56:21.252Z,91.21
2022-08-02T19:59:13.220Z,91.38
2022-08-02T20:01:48.484Z,91.55
2022-08-02T20:04:23.135Z,91.79
2022-08-02T20:06:53.641Z,91.79
2022-08-02T20:09:33.180Z,91.92
2022-08-02T20:12:16.805Z,92.13
2022-08-02T20:14:51.149Z,92.25
2022-08-02T20:17:21.766Z,92.37
2022-08-02T20:19:52.287Z,92.48
2022-08-02T20:22:22.013Z,92.59
2022-08-02T20:24:51.745Z,92.95
2022-08-02T20:27:24.786Z,93.17
2022-08-02T20:29:59.499Z,93.31
2022-08-02T20:32:29.229Z,93.42
2022-08-02T20:34:58.913Z,93.37
2022-08-02T20:38:00.089Z,93.61
2022-08-02T20:40:18.613Z,93.42
2022-08-02T20:42:49.127Z,93.37
2022-08-02T20:45:21.911Z,93.20
2022-08-02T20:47:52.492Z,93.33
2022-08-02T20:50:35.019Z,93.73
2022-08-02T20:53:05.017Z,93.72
2022-08-02T20:55:35.802Z,94.09
2022-08-02T20:58:06.733Z,94.06
2022-08-02T21:00:44.352Z,94.32
2022-08-02T21:03:15.952Z,94.25
2022-08-02T21:05:54.611Z,94.47
2022-08-02T21:08:25.833Z,94.38
2022-08-02T21:10:55.844Z,94.48
2022-08-02T21:13:26.809Z,94.32
2022-08-02T21:16:00.454Z,94.61
2022-08-02T21:18:40.344Z,94.77
2022-08-02T21:21:11.362Z,95.15
2022-08-02T21:23:45.025Z,95.36
2022-08-02T21:26:19.715Z,95.64
2022-08-02T21:28:55.648Z,95.67
2022-08-02T21:31:29.997Z,96.03
2022-08-02T21:34:01.904Z,96.08
2022-08-02T21:36:33.551Z,96.21
2022-08-02T21:39:04.918Z,96.48
2022-08-02T21:41:39.099Z,96.48
2022-08-02T21:44:16.064Z,96.45
2022-08-02T21:46:50.225Z,96.70
2022-08-02T21:49:20.848Z,96.70
2022-08-02T21:51:57.429Z,96.98
2022-08-02T21:54:27.149Z,96.85
2022-08-02T21:56:57.740Z,97.09
2022-08-02T21:59:28.529Z,97.24
2022-08-02T22:02:00.912Z,97.12
2022-08-02T22:04:30.969Z,97.21
2022-08-02T22:07:00.864Z,97.50
2022-08-02T22:09:42.818Z,97.53
2022-08-02T22:12:17.570Z,97.46
2022-08-02T22:14:53.514Z,97.57
2022-08-02T22:17:51.657Z,97.68
2022-08-02T22:20:20.679Z,97.51
2022-08-02T22:22:52.488Z,97.72
2022-08-02T22:25:36.037Z,97.86
2022-08-02T22:28:39.411Z,98.00
2022-08-02T22:30:59.989Z,98.15
2022-08-02T22:34:00.317Z,98.10
2022-08-02T22:36:31.867Z,98.31
2022-08-02T22:39:02.340Z,98.47
2022-08-02T22:42:01.444Z,98.50
2022-08-02T22:44:21.858Z,98.53
2022-08-02T22:46:51.643Z,98.92
2022-08-02T22:49:39.092Z,98.78
2022-08-02T22:52:15.123Z,98.50
2022-08-02T22:54:50.918Z,98.80
2022-08-02T22:57:50.563Z,98.76
2022-08-02T22:58:59.657Z,87.72
2022-08-02T23:00:27.597Z,98.70
2022-08-02T23:02:57.312Z,98.92
2022-08-02T23:05:29.846Z,99.06
2022-08-02T23:07:59.569Z,99.38
2022-08-02T23:10:29.370Z,99.21
2022-08-02T23:12:59.301Z,99.41
2022-08-02T23:15:49.583Z,99.40
2022-08-02T23:18:31.739Z,99.15
2022-08-02T23:21:04.016Z,99.20
2022-08-02T23:23:33.703Z,99.16
2022-08-02T23:26:03.437Z,99.40
2022-08-02T23:28:33.407Z,99.52
2022-08-02T23:31:03.104Z,99.59
2022-08-02T23:34:03.489Z,99.68
2022-08-02T23:36:31.931Z,99.87
2022-08-02T23:39:02.522Z,100.00
2022-08-02T23:41:32.235Z,100.00
2022-08-02T23:44:16.081Z,100.00
2022-08-02T23:46:46.152Z,100.00
2022-08-02T23:49:16.518Z,100.00
2022-08-02T23:51:49.232Z,100.00
2022-08-02T23:54:19.464Z,100.00
2022-08-02T23:56:49.751Z,100.00
2022-08-02T23:59:20.000Z,100.00
